sensor_id;sensor_type;location;lat;lon;timestamp;P1;durP1;ratioP1;P2;durP2;ratioP2
58240;SDS011;45058;55.772;38.224;2023-11-18T00:00:20;12.17;;;5.90;;
58240;SDS011;45058;55.772;38.224;2023-11-18T00:02:46;14.57;;;6.23;;
58240;SDS011;45058;55.772;38.224;2023-11-18T00:05:12;14.13;;;6.47;;
58240;SDS011;45058;55.772;38.224;2023-11-18T00:07:39;15.90;;;6.83;;
58240;SDS011;45058;55.772;38.224;2023-11-18T00:10:05;14.90;;;6.80;;
58240;SDS011;45058;55.772;38.224;2023-11-18T00:12:32;17.60;;;6.90;;
58240;SDS011;45058;55.772;38.224;2023-11-18T00:15:04;13.30;;;5.90;;
58240;SDS011;45058;55.772;38.224;2023-11-18T00:17:34;16.50;;;7.43;;
58240;SDS011;45058;55.772;38.224;2023-11-18T00:20:00;13.80;;;7.40;;
58240;SDS011;45058;55.772;38.224;2023-11-18T00:22:38;17.90;;;8.87;;
58240;SDS011;45058;55.772;38.224;2023-11-18T00:25:13;16.50;;;7.97;;
58240;SDS011;45058;55.772;38.224;2023-11-18T00:27:51;18.37;;;7.47;;
58240;SDS011;45058;55.772;38.224;2023-11-18T00:30:27;14.93;;;7.77;;
58240;SDS011;45058;55.772;38.224;2023-11-18T00:32:54;18.43;;;8.27;;
58240;SDS011;45058;55.772;38.224;2023-11-18T00:35:20;26.00;;;10.80;;
58240;SDS011;45058;55.772;38.224;2023-11-18T00:37:46;22.17;;;9.63;;
58240;SDS011;45058;55.772;38.224;2023-11-18T00:40:13;29.77;;;10.77;;
58240;SDS011;45058;55.772;38.224;2023-11-18T00:42:39;20.43;;;9.33;;
58240;SDS011;45058;55.772;38.224;2023-11-18T00:45:07;24.07;;;10.87;;
58240;SDS011;45058;55.772;38.224;2023-11-18T00:47:34;22.60;;;11.37;;
58240;SDS011;45058;55.772;38.224;2023-11-18T00:50:00;26.27;;;11.23;;
58240;SDS011;45058;55.772;38.224;2023-11-18T00:52:32;24.57;;;11.93;;
58240;SDS011;45058;55.772;38.224;2023-11-18T00:54:58;24.03;;;12.17;;
58240;SDS011;45058;55.772;38.224;2023-11-18T00:57:24;27.07;;;13.50;;
58240;SDS011;45058;55.772;38.224;2023-11-18T00:59:50;18.83;;;11.40;;
58240;SDS011;45058;55.772;38.224;2023-11-18T01:02:16;20.07;;;10.57;;
58240;SDS011;45058;55.772;38.224;2023-11-18T01:04:44;24.77;;;11.23;;
58240;SDS011;45058;55.772;38.224;2023-11-18T01:07:14;18.03;;;9.40;;
58240;SDS011;45058;55.772;38.224;2023-11-18T01:09:40;25.53;;;10.63;;
58240;SDS011;45058;55.772;38.224;2023-11-18T01:12:06;17.60;;;9.43;;
58240;SDS011;45058;55.772;38.224;2023-11-18T01:14:36;25.50;;;10.93;;
58240;SDS011;45058;55.772;38.224;2023-11-18T01:17:05;20.17;;;9.73;;
58240;SDS011;45058;55.772;38.224;2023-11-18T01:19:31;21.37;;;10.13;;
58240;SDS011;45058;55.772;38.224;2023-11-18T01:21:59;16.00;;;8.57;;
58240;SDS011;45058;55.772;38.224;2023-11-18T01:24:25;16.53;;;7.67;;
58240;SDS011;45058;55.772;38.224;2023-11-18T01:26:51;18.17;;;9.03;;
58240;SDS011;45058;55.772;38.224;2023-11-18T01:29:17;24.73;;;8.13;;
58240;SDS011;45058;55.772;38.224;2023-11-18T01:31:43;30.00;;;8.67;;
58240;SDS011;45058;55.772;38.224;2023-11-18T01:34:09;21.37;;;8.77;;
58240;SDS011;45058;55.772;38.224;2023-11-18T01:36:37;22.93;;;8.03;;
58240;SDS011;45058;55.772;38.224;2023-11-18T01:39:03;17.20;;;7.33;;
58240;SDS011;45058;55.772;38.224;2023-11-18T01:41:30;12.73;;;6.73;;
58240;SDS011;45058;55.772;38.224;2023-11-18T01:43:58;14.93;;;6.60;;
58240;SDS011;45058;55.772;38.224;2023-11-18T01:46:25;22.40;;;7.30;;
58240;SDS011;45058;55.772;38.224;2023-11-18T01:48:51;19.40;;;7.87;;
58240;SDS011;45058;55.772;38.224;2023-11-18T01:51:18;12.30;;;6.63;;
58240;SDS011;45058;55.772;38.224;2023-11-18T01:53:46;13.23;;;6.13;;
58240;SDS011;45058;55.772;38.224;2023-11-18T01:56:13;14.20;;;7.30;;
58240;SDS011;45058;55.772;38.224;2023-11-18T01:58:40;15.33;;;6.33;;
58240;SDS011;45058;55.772;38.224;2023-11-18T02:01:06;18.67;;;6.47;;
58240;SDS011;45058;55.772;38.224;2023-11-18T02:03:35;15.70;;;7.03;;
58240;SDS011;45058;55.772;38.224;2023-11-18T02:06:02;20.17;;;7.23;;
58240;SDS011;45058;55.772;38.224;2023-11-18T02:08:31;18.10;;;6.80;;
58240;SDS011;45058;55.772;38.224;2023-11-18T02:11:44;26.77;;;6.97;;
58240;SDS011;45058;55.772;38.224;2023-11-18T02:13:59;15.37;;;6.50;;
58240;SDS011;45058;55.772;38.224;2023-11-18T02:16:30;23.00;;;7.33;;
58240;SDS011;45058;55.772;38.224;2023-11-18T02:18:57;15.90;;;7.13;;
58240;SDS011;45058;55.772;38.224;2023-11-18T02:21:26;17.33;;;7.13;;
58240;SDS011;45058;55.772;38.224;2023-11-18T02:23:53;14.87;;;6.77;;
58240;SDS011;45058;55.772;38.224;2023-11-18T02:26:23;13.43;;;5.27;;
58240;SDS011;45058;55.772;38.224;2023-11-18T02:28:50;15.30;;;5.53;;
58240;SDS011;45058;55.772;38.224;2023-11-18T02:31:20;14.00;;;6.13;;
58240;SDS011;45058;55.772;38.224;2023-11-18T02:34:14;14.90;;;5.90;;
58240;SDS011;45058;55.772;38.224;2023-11-18T02:36:47;15.53;;;6.33;;
58240;SDS011;45058;55.772;38.224;2023-11-18T02:41:48;14.27;;;6.00;;
58240;SDS011;45058;55.772;38.224;2023-11-18T02:44:17;19.30;;;5.53;;
58240;SDS011;45058;55.772;38.224;2023-11-18T02:46:45;12.97;;;5.30;;
58240;SDS011;45058;55.772;38.224;2023-11-18T02:49:11;15.83;;;5.03;;
58240;SDS011;45058;55.772;38.224;2023-11-18T02:51:39;10.50;;;4.73;;
58240;SDS011;45058;55.772;38.224;2023-11-18T02:54:05;14.70;;;5.27;;
58240;SDS011;45058;55.772;38.224;2023-11-18T02:56:32;16.30;;;5.37;;
58240;SDS011;45058;55.772;38.224;2023-11-18T02:58:58;12.10;;;5.33;;
58240;SDS011;45058;55.772;38.224;2023-11-18T03:01:26;9.27;;;4.90;;
58240;SDS011;45058;55.772;38.224;2023-11-18T03:03:53;9.80;;;4.80;;
58240;SDS011;45058;55.772;38.224;2023-11-18T03:06:20;14.17;;;5.50;;
58240;SDS011;45058;55.772;38.224;2023-11-18T03:08:46;15.63;;;5.03;;
58240;SDS011;45058;55.772;38.224;2023-11-18T03:11:12;14.60;;;5.03;;
58240;SDS011;45058;55.772;38.224;2023-11-18T03:13:39;10.20;;;4.90;;
58240;SDS011;45058;55.772;38.224;2023-11-18T03:16:08;13.03;;;5.03;;
58240;SDS011;45058;55.772;38.224;2023-11-18T03:18:39;10.70;;;4.40;;
58240;SDS011;45058;55.772;38.224;2023-11-18T03:21:10;14.43;;;5.27;;
58240;SDS011;45058;55.772;38.224;2023-11-18T03:23:38;12.50;;;5.33;;
58240;SDS011;45058;55.772;38.224;2023-11-18T03:26:07;10.03;;;4.67;;
58240;SDS011;45058;55.772;38.224;2023-11-18T03:28:39;17.17;;;4.57;;
58240;SDS011;45058;55.772;38.224;2023-11-18T03:31:06;14.80;;;5.00;;
58240;SDS011;45058;55.772;38.224;2023-11-18T03:33:33;14.73;;;5.30;;
58240;SDS011;45058;55.772;38.224;2023-11-18T03:35:59;13.03;;;4.57;;
58240;SDS011;45058;55.772;38.224;2023-11-18T03:38:25;14.80;;;5.37;;
58240;SDS011;45058;55.772;38.224;2023-11-18T03:40:54;12.03;;;5.40;;
58240;SDS011;45058;55.772;38.224;2023-11-18T03:43:21;9.47;;;4.47;;
58240;SDS011;45058;55.772;38.224;2023-11-18T03:45:48;10.07;;;4.97;;
58240;SDS011;45058;55.772;38.224;2023-11-18T03:48:14;16.23;;;5.07;;
58240;SDS011;45058;55.772;38.224;2023-11-18T03:50:41;13.53;;;5.23;;
58240;SDS011;45058;55.772;38.224;2023-11-18T03:53:10;12.43;;;5.20;;
58240;SDS011;45058;55.772;38.224;2023-11-18T03:55:37;9.20;;;4.83;;
58240;SDS011;45058;55.772;38.224;2023-11-18T03:58:03;11.50;;;5.20;;
58240;SDS011;45058;55.772;38.224;2023-11-18T04:00:29;22.83;;;5.97;;
58240;SDS011;45058;55.772;38.224;2023-11-18T04:02:57;13.67;;;5.10;;
58240;SDS011;45058;55.772;38.224;2023-11-18T04:05:23;12.67;;;5.03;;
58240;SDS011;45058;55.772;38.224;2023-11-18T04:07:50;11.47;;;4.40;;
58240;SDS011;45058;55.772;38.224;2023-11-18T04:10:16;16.53;;;5.00;;
58240;SDS011;45058;55.772;38.224;2023-11-18T04:12:44;14.83;;;5.20;;
58240;SDS011;45058;55.772;38.224;2023-11-18T04:15:15;12.00;;;5.20;;
58240;SDS011;45058;55.772;38.224;2023-11-18T04:17:42;14.90;;;5.40;;
58240;SDS011;45058;55.772;38.224;2023-11-18T04:20:10;12.43;;;5.60;;
58240;SDS011;45058;55.772;38.224;2023-11-18T04:22:42;13.20;;;5.47;;
58240;SDS011;45058;55.772;38.224;2023-11-18T04:25:09;13.37;;;5.00;;
58240;SDS011;45058;55.772;38.224;2023-11-18T04:27:39;14.73;;;4.83;;
58240;SDS011;45058;55.772;38.224;2023-11-18T04:30:07;11.27;;;4.60;;
58240;SDS011;45058;55.772;38.224;2023-11-18T04:32:38;9.27;;;4.83;;
58240;SDS011;45058;55.772;38.224;2023-11-18T04:35:04;16.00;;;5.13;;
58240;SDS011;45058;55.772;38.224;2023-11-18T04:37:35;11.23;;;5.23;;
58240;SDS011;45058;55.772;38.224;2023-11-18T04:40:02;18.40;;;5.10;;
58240;SDS011;45058;55.772;38.224;2023-11-18T04:42:32;10.67;;;4.63;;
58240;SDS011;45058;55.772;38.224;2023-11-18T04:44:58;13.70;;;5.63;;
58240;SDS011;45058;55.772;38.224;2023-11-18T04:47:26;11.80;;;6.00;;
58240;SDS011;45058;55.772;38.224;2023-11-18T04:49:53;11.37;;;5.00;;
58240;SDS011;45058;55.772;38.224;2023-11-18T04:52:20;10.60;;;5.10;;
58240;SDS011;45058;55.772;38.224;2023-11-18T04:54:47;11.07;;;4.93;;
58240;SDS011;45058;55.772;38.224;2023-11-18T04:57:14;11.40;;;5.53;;
58240;SDS011;45058;55.772;38.224;2023-11-18T04:59:41;14.23;;;5.73;;
58240;SDS011;45058;55.772;38.224;2023-11-18T05:02:08;14.03;;;5.43;;
58240;SDS011;45058;55.772;38.224;2023-11-18T05:04:34;13.90;;;6.30;;
58240;SDS011;45058;55.772;38.224;2023-11-18T05:07:02;19.63;;;6.43;;
58240;SDS011;45058;55.772;38.224;2023-11-18T05:09:28;17.67;;;6.77;;
58240;SDS011;45058;55.772;38.224;2023-11-18T05:11:54;11.87;;;6.20;;
58240;SDS011;45058;55.772;38.224;2023-11-18T05:14:20;20.33;;;6.50;;
58240;SDS011;45058;55.772;38.224;2023-11-18T05:16:46;15.77;;;6.23;;
58240;SDS011;45058;55.772;38.224;2023-11-18T05:19:13;10.97;;;5.97;;
58240;SDS011;45058;55.772;38.224;2023-11-18T05:21:40;11.87;;;5.30;;
58240;SDS011;45058;55.772;38.224;2023-11-18T05:24:07;12.03;;;4.97;;
58240;SDS011;45058;55.772;38.224;2023-11-18T05:26:34;11.57;;;5.57;;
58240;SDS011;45058;55.772;38.224;2023-11-18T05:29:00;15.63;;;5.70;;
58240;SDS011;45058;55.772;38.224;2023-11-18T05:31:27;14.20;;;5.20;;
58240;SDS011;45058;55.772;38.224;2023-11-18T05:33:55;17.60;;;5.43;;
58240;SDS011;45058;55.772;38.224;2023-11-18T05:36:21;15.10;;;5.67;;
58240;SDS011;45058;55.772;38.224;2023-11-18T05:38:54;14.40;;;5.70;;
58240;SDS011;45058;55.772;38.224;2023-11-18T05:41:20;16.30;;;5.87;;
58240;SDS011;45058;55.772;38.224;2023-11-18T05:43:54;11.43;;;5.97;;
58240;SDS011;45058;55.772;38.224;2023-11-18T05:46:24;17.80;;;6.67;;
58240;SDS011;45058;55.772;38.224;2023-11-18T05:48:52;21.30;;;6.83;;
58240;SDS011;45058;55.772;38.224;2023-11-18T05:51:23;26.67;;;7.33;;
58240;SDS011;45058;55.772;38.224;2023-11-18T05:53:50;22.23;;;7.47;;
58240;SDS011;45058;55.772;38.224;2023-11-18T05:56:16;15.37;;;6.50;;
58240;SDS011;45058;55.772;38.224;2023-11-18T05:58:44;14.27;;;6.60;;
58240;SDS011;45058;55.772;38.224;2023-11-18T06:01:11;21.33;;;6.80;;
58240;SDS011;45058;55.772;38.224;2023-11-18T06:03:38;16.93;;;6.93;;
58240;SDS011;45058;55.772;38.224;2023-11-18T06:06:09;15.97;;;7.53;;
58240;SDS011;45058;55.772;38.224;2023-11-18T06:08:38;19.43;;;6.77;;
58240;SDS011;45058;55.772;38.224;2023-11-18T06:11:08;16.33;;;6.17;;
58240;SDS011;45058;55.772;38.224;2023-11-18T06:13:44;12.02;;;4.65;;
58240;SDS011;45058;55.772;38.224;2023-11-18T06:16:16;20.97;;;6.40;;
58240;SDS011;45058;55.772;38.224;2023-11-18T06:18:48;11.52;;;4.15;;
58240;SDS011;45058;55.772;38.224;2023-11-18T06:21:16;15.90;;;6.90;;
58240;SDS011;45058;55.772;38.224;2023-11-18T06:23:44;24.07;;;7.50;;
58240;SDS011;45058;55.772;38.224;2023-11-18T06:26:14;19.07;;;6.53;;
58240;SDS011;45058;55.772;38.224;2023-11-18T06:28:41;22.83;;;6.83;;
58240;SDS011;45058;55.772;38.224;2023-11-18T06:31:08;17.67;;;7.03;;
58240;SDS011;45058;55.772;38.224;2023-11-18T06:33:38;17.77;;;6.97;;
58240;SDS011;45058;55.772;38.224;2023-11-18T06:38:50;20.30;;;6.82;;
58240;SDS011;45058;55.772;38.224;2023-11-18T06:41:17;16.33;;;6.83;;
58240;SDS011;45058;55.772;38.224;2023-11-18T06:43:45;15.77;;;7.00;;
58240;SDS011;45058;55.772;38.224;2023-11-18T06:46:26;13.47;;;6.73;;
58240;SDS011;45058;55.772;38.224;2023-11-18T06:48:54;11.23;;;5.73;;
58240;SDS011;45058;55.772;38.224;2023-11-18T06:51:23;12.23;;;5.63;;
58240;SDS011;45058;55.772;38.224;2023-11-18T06:53:50;16.97;;;6.23;;
58240;SDS011;45058;55.772;38.224;2023-11-18T06:56:17;21.30;;;5.90;;
58240;SDS011;45058;55.772;38.224;2023-11-18T06:58:44;16.40;;;6.07;;
58240;SDS011;45058;55.772;38.224;2023-11-18T07:01:13;14.23;;;5.90;;
58240;SDS011;45058;55.772;38.224;2023-11-18T07:03:41;12.93;;;6.43;;
58240;SDS011;45058;55.772;38.224;2023-11-18T07:06:10;19.17;;;6.03;;
58240;SDS011;45058;55.772;38.224;2023-11-18T07:08:40;16.57;;;6.70;;
58240;SDS011;45058;55.772;38.224;2023-11-18T07:11:06;17.63;;;7.80;;
58240;SDS011;45058;55.772;38.224;2023-11-18T07:13:32;17.80;;;7.30;;
58240;SDS011;45058;55.772;38.224;2023-11-18T07:16:02;14.23;;;6.30;;
58240;SDS011;45058;55.772;38.224;2023-11-18T07:18:30;14.27;;;6.23;;
58240;SDS011;45058;55.772;38.224;2023-11-18T07:20:59;15.77;;;6.77;;
58240;SDS011;45058;55.772;38.224;2023-11-18T07:23:27;17.47;;;5.87;;
58240;SDS011;45058;55.772;38.224;2023-11-18T07:25:53;12.97;;;5.97;;
58240;SDS011;45058;55.772;38.224;2023-11-18T07:28:19;10.77;;;5.30;;
58240;SDS011;45058;55.772;38.224;2023-11-18T07:30:46;14.23;;;5.10;;
58240;SDS011;45058;55.772;38.224;2023-11-18T07:33:14;13.87;;;5.43;;
58240;SDS011;45058;55.772;38.224;2023-11-18T07:35:40;10.63;;;4.17;;
58240;SDS011;45058;55.772;38.224;2023-11-18T07:38:07;33.13;;;20.03;;
58240;SDS011;45058;55.772;38.224;2023-11-18T07:40:35;32.10;;;18.50;;
58240;SDS011;45058;55.772;38.224;2023-11-18T07:43:01;15.63;;;7.07;;
58240;SDS011;45058;55.772;38.224;2023-11-18T07:45:27;15.17;;;8.70;;
58240;SDS011;45058;55.772;38.224;2023-11-18T07:47:54;18.83;;;8.07;;
58240;SDS011;45058;55.772;38.224;2023-11-18T07:50:21;11.60;;;5.20;;
58240;SDS011;45058;55.772;38.224;2023-11-18T07:52:47;9.63;;;3.20;;
58240;SDS011;45058;55.772;38.224;2023-11-18T07:55:14;14.50;;;4.70;;
58240;SDS011;45058;55.772;38.224;2023-11-18T07:57:40;6.60;;;3.17;;
58240;SDS011;45058;55.772;38.224;2023-11-18T08:00:08;10.43;;;3.90;;
58240;SDS011;45058;55.772;38.224;2023-11-18T08:02:39;10.40;;;3.60;;
58240;SDS011;45058;55.772;38.224;2023-11-18T08:05:06;9.73;;;3.83;;
58240;SDS011;45058;55.772;38.224;2023-11-18T08:07:36;7.87;;;3.20;;
58240;SDS011;45058;55.772;38.224;2023-11-18T08:10:04;11.40;;;3.80;;
58240;SDS011;45058;55.772;38.224;2023-11-18T08:12:31;11.40;;;4.17;;
58240;SDS011;45058;55.772;38.224;2023-11-18T08:14:59;14.97;;;4.73;;
58240;SDS011;45058;55.772;38.224;2023-11-18T08:17:26;12.13;;;4.97;;
58240;SDS011;45058;55.772;38.224;2023-11-18T08:19:52;12.47;;;5.20;;
58240;SDS011;45058;55.772;38.224;2023-11-18T08:22:19;9.60;;;4.57;;
58240;SDS011;45058;55.772;38.224;2023-11-18T08:24:49;24.40;;;5.17;;
58240;SDS011;45058;55.772;38.224;2023-11-18T08:27:15;11.67;;;4.63;;
58240;SDS011;45058;55.772;38.224;2023-11-18T08:29:45;13.60;;;5.20;;
58240;SDS011;45058;55.772;38.224;2023-11-18T08:32:13;12.30;;;4.43;;
58240;SDS011;45058;55.772;38.224;2023-11-18T08:34:40;9.10;;;3.87;;
58240;SDS011;45058;55.772;38.224;2023-11-18T08:37:06;11.77;;;4.50;;
58240;SDS011;45058;55.772;38.224;2023-11-18T08:39:33;10.90;;;4.17;;
58240;SDS011;45058;55.772;38.224;2023-11-18T08:41:59;8.43;;;3.30;;
58240;SDS011;45058;55.772;38.224;2023-11-18T08:44:25;5.53;;;3.23;;
58240;SDS011;45058;55.772;38.224;2023-11-18T08:46:52;13.07;;;4.50;;
58240;SDS011;45058;55.772;38.224;2023-11-18T08:49:19;11.77;;;3.83;;
58240;SDS011;45058;55.772;38.224;2023-11-18T08:51:47;13.70;;;4.33;;
58240;SDS011;45058;55.772;38.224;2023-11-18T08:54:15;10.53;;;3.60;;
58240;SDS011;45058;55.772;38.224;2023-11-18T08:57:14;9.93;;;4.40;;
58240;SDS011;45058;55.772;38.224;2023-11-18T08:59:51;14.87;;;4.07;;
58240;SDS011;45058;55.772;38.224;2023-11-18T09:02:18;8.47;;;3.50;;
58240;SDS011;45058;55.772;38.224;2023-11-18T09:04:52;13.10;;;4.70;;
58240;SDS011;45058;55.772;38.224;2023-11-18T09:07:20;10.67;;;4.17;;
58240;SDS011;45058;55.772;38.224;2023-11-18T09:09:47;10.40;;;4.73;;
58240;SDS011;45058;55.772;38.224;2023-11-18T09:12:18;14.13;;;5.67;;
58240;SDS011;45058;55.772;38.224;2023-11-18T09:14:45;17.07;;;6.30;;
58240;SDS011;45058;55.772;38.224;2023-11-18T09:17:13;12.87;;;5.63;;
58240;SDS011;45058;55.772;38.224;2023-11-18T09:19:40;12.43;;;5.20;;
58240;SDS011;45058;55.772;38.224;2023-11-18T09:22:06;11.97;;;4.87;;
58240;SDS011;45058;55.772;38.224;2023-11-18T09:24:32;10.50;;;4.17;;
58240;SDS011;45058;55.772;38.224;2023-11-18T09:27:00;12.63;;;5.00;;
58240;SDS011;45058;55.772;38.224;2023-11-18T09:29:26;13.37;;;4.93;;
58240;SDS011;45058;55.772;38.224;2023-11-18T09:31:53;11.73;;;5.50;;
58240;SDS011;45058;55.772;38.224;2023-11-18T09:34:20;14.87;;;5.20;;
58240;SDS011;45058;55.772;38.224;2023-11-18T09:36:53;12.00;;;6.30;;
58240;SDS011;45058;55.772;38.224;2023-11-18T09:39:20;12.03;;;5.30;;
58240;SDS011;45058;55.772;38.224;2023-11-18T09:42:06;11.13;;;4.60;;
58240;SDS011;45058;55.772;38.224;2023-11-18T09:44:37;10.03;;;4.37;;
58240;SDS011;45058;55.772;38.224;2023-11-18T09:47:04;15.23;;;4.77;;
58240;SDS011;45058;55.772;38.224;2023-11-18T09:49:45;12.87;;;5.47;;
58240;SDS011;45058;55.772;38.224;2023-11-18T09:52:14;14.93;;;5.13;;
58240;SDS011;45058;55.772;38.224;2023-11-18T09:54:48;14.93;;;4.93;;
58240;SDS011;45058;55.772;38.224;2023-11-18T09:57:30;9.37;;;4.47;;
58240;SDS011;45058;55.772;38.224;2023-11-18T10:00:00;15.93;;;4.70;;
58240;SDS011;45058;55.772;38.224;2023-11-18T10:02:52;10.80;;;4.10;;
58240;SDS011;45058;55.772;38.224;2023-11-18T10:05:21;10.53;;;3.30;;
58240;SDS011;45058;55.772;38.224;2023-11-18T10:07:50;11.43;;;4.10;;
58240;SDS011;45058;55.772;38.224;2023-11-18T10:10:17;21.10;;;5.27;;
58240;SDS011;45058;55.772;38.224;2023-11-18T10:12:46;11.13;;;4.57;;
58240;SDS011;45058;55.772;38.224;2023-11-18T10:15:24;12.87;;;4.03;;
58240;SDS011;45058;55.772;38.224;2023-11-18T10:17:51;15.90;;;4.17;;
58240;SDS011;45058;55.772;38.224;2023-11-18T10:27:31;16.03;;;5.93;;
58240;SDS011;45058;55.772;38.224;2023-11-18T10:30:03;12.53;;;5.63;;
58240;SDS011;45058;55.772;38.224;2023-11-18T10:32:34;13.63;;;6.57;;
58240;SDS011;45058;55.772;38.224;2023-11-18T10:35:05;19.13;;;6.20;;
58240;SDS011;45058;55.772;38.224;2023-11-18T10:37:31;16.70;;;5.73;;
58240;SDS011;45058;55.772;38.224;2023-11-18T10:39:58;15.60;;;6.33;;
58240;SDS011;45058;55.772;38.224;2023-11-18T10:42:25;13.40;;;5.10;;
58240;SDS011;45058;55.772;38.224;2023-11-18T10:44:57;10.17;;;4.77;;
58240;SDS011;45058;55.772;38.224;2023-11-18T10:47:26;24.20;;;4.80;;
58240;SDS011;45058;55.772;38.224;2023-11-18T10:49:53;16.40;;;5.00;;
58240;SDS011;45058;55.772;38.224;2023-11-18T10:52:24;14.33;;;5.03;;
58240;SDS011;45058;55.772;38.224;2023-11-18T10:55:01;12.37;;;4.47;;
58240;SDS011;45058;55.772;38.224;2023-11-18T10:57:37;9.57;;;4.90;;
58240;SDS011;45058;55.772;38.224;2023-11-18T11:00:06;21.63;;;5.73;;
58240;SDS011;45058;55.772;38.224;2023-11-18T11:02:45;15.63;;;5.33;;
58240;SDS011;45058;55.772;38.224;2023-11-18T11:05:34;13.50;;;5.23;;
58240;SDS011;45058;55.772;38.224;2023-11-18T11:08:04;14.03;;;4.70;;
58240;SDS011;45058;55.772;38.224;2023-11-18T11:10:32;10.67;;;5.00;;
58240;SDS011;45058;55.772;38.224;2023-11-18T11:13:01;16.90;;;7.43;;
58240;SDS011;45058;55.772;38.224;2023-11-18T11:15:32;14.00;;;4.70;;
58240;SDS011;45058;55.772;38.224;2023-11-18T11:18:02;16.13;;;5.57;;
58240;SDS011;45058;55.772;38.224;2023-11-18T11:20:39;19.67;;;4.40;;
58240;SDS011;45058;55.772;38.224;2023-11-18T11:31:46;11.47;;;4.50;;
58240;SDS011;45058;55.772;38.224;2023-11-18T11:34:17;13.30;;;4.87;;
58240;SDS011;45058;55.772;38.224;2023-11-18T11:36:46;10.87;;;4.13;;
58240;SDS011;45058;55.772;38.224;2023-11-18T11:39:17;9.00;;;4.97;;
58240;SDS011;45058;55.772;38.224;2023-11-18T11:41:51;11.03;;;4.10;;
58240;SDS011;45058;55.772;38.224;2023-11-18T11:44:22;10.23;;;4.20;;
58240;SDS011;45058;55.772;38.224;2023-11-18T11:46:55;11.67;;;4.47;;
58240;SDS011;45058;55.772;38.224;2023-11-18T11:49:26;14.17;;;4.97;;
58240;SDS011;45058;55.772;38.224;2023-11-18T11:52:03;12.33;;;4.80;;
58240;SDS011;45058;55.772;38.224;2023-11-18T11:54:52;10.03;;;4.20;;
58240;SDS011;45058;55.772;38.224;2023-11-18T11:57:32;12.37;;;4.73;;
58240;SDS011;45058;55.772;38.224;2023-11-18T12:00:02;9.47;;;4.03;;
58240;SDS011;45058;55.772;38.224;2023-11-18T12:02:50;11.43;;;4.60;;
58240;SDS011;45058;55.772;38.224;2023-11-18T12:05:23;10.03;;;4.40;;
58240;SDS011;45058;55.772;38.224;2023-11-18T12:07:52;22.90;;;4.53;;
58240;SDS011;45058;55.772;38.224;2023-11-18T12:10:21;13.10;;;4.10;;
58240;SDS011;45058;55.772;38.224;2023-11-18T12:13:11;13.43;;;3.83;;
58240;SDS011;45058;55.772;38.224;2023-11-18T12:15:53;10.20;;;3.70;;
58240;SDS011;45058;55.772;38.224;2023-11-18T12:18:22;13.57;;;3.42;;
58240;SDS011;45058;55.772;38.224;2023-11-18T12:20:52;6.20;;;3.10;;
58240;SDS011;45058;55.772;38.224;2023-11-18T12:23:23;10.73;;;3.70;;
58240;SDS011;45058;55.772;38.224;2023-11-18T12:25:50;7.90;;;3.30;;
58240;SDS011;45058;55.772;38.224;2023-11-18T12:28:24;7.97;;;3.63;;
58240;SDS011;45058;55.772;38.224;2023-11-18T12:30:57;6.55;;;3.10;;
58240;SDS011;45058;55.772;38.224;2023-11-18T12:33:25;14.30;;;5.13;;
58240;SDS011;45058;55.772;38.224;2023-11-18T12:44:11;9.53;;;4.43;;
58240;SDS011;45058;55.772;38.224;2023-11-18T12:47:01;12.90;;;4.23;;
58240;SDS011;45058;55.772;38.224;2023-11-18T12:49:41;10.30;;;4.30;;
58240;SDS011;45058;55.772;38.224;2023-11-18T12:52:08;11.00;;;4.83;;
58240;SDS011;45058;55.772;38.224;2023-11-18T12:54:36;10.50;;;4.40;;
58240;SDS011;45058;55.772;38.224;2023-11-18T12:57:10;9.77;;;4.87;;
58240;SDS011;45058;55.772;38.224;2023-11-18T12:59:40;15.27;;;5.67;;
58240;SDS011;45058;55.772;38.224;2023-11-18T13:02:07;12.97;;;5.07;;
58240;SDS011;45058;55.772;38.224;2023-11-18T13:04:39;227.70;;;22.23;;
58240;SDS011;45058;55.772;38.224;2023-11-18T13:07:06;14.10;;;4.90;;
58240;SDS011;45058;55.772;38.224;2023-11-18T13:09:34;16.10;;;4.07;;
58240;SDS011;45058;55.772;38.224;2023-11-18T13:12:02;13.87;;;4.60;;
58240;SDS011;45058;55.772;38.224;2023-11-18T13:14:35;12.77;;;4.90;;
58240;SDS011;45058;55.772;38.224;2023-11-18T13:17:08;10.07;;;4.57;;
58240;SDS011;45058;55.772;38.224;2023-11-18T13:19:38;14.77;;;4.20;;
58240;SDS011;45058;55.772;38.224;2023-11-18T13:22:05;17.97;;;4.77;;
58240;SDS011;45058;55.772;38.224;2023-11-18T13:24:37;15.10;;;4.73;;
58240;SDS011;45058;55.772;38.224;2023-11-18T13:27:07;16.97;;;5.17;;
58240;SDS011;45058;55.772;38.224;2023-11-18T13:29:34;17.90;;;6.03;;
58240;SDS011;45058;55.772;38.224;2023-11-18T13:32:02;11.27;;;5.37;;
58240;SDS011;45058;55.772;38.224;2023-11-18T13:34:35;11.47;;;4.80;;
58240;SDS011;45058;55.772;38.224;2023-11-18T13:37:05;14.33;;;3.83;;
58240;SDS011;45058;55.772;38.224;2023-11-18T13:39:33;11.03;;;4.83;;
58240;SDS011;45058;55.772;38.224;2023-11-18T13:44:46;13.27;;;4.50;;
58240;SDS011;45058;55.772;38.224;2023-11-18T13:47:16;11.67;;;4.87;;
58240;SDS011;45058;55.772;38.224;2023-11-18T13:49:43;12.33;;;4.33;;
58240;SDS011;45058;55.772;38.224;2023-11-18T13:52:09;9.53;;;4.30;;
58240;SDS011;45058;55.772;38.224;2023-11-18T13:54:37;17.17;;;5.73;;
58240;SDS011;45058;55.772;38.224;2023-11-18T13:57:04;15.63;;;5.47;;
58240;SDS011;45058;55.772;38.224;2023-11-18T13:59:31;16.33;;;5.53;;
58240;SDS011;45058;55.772;38.224;2023-11-18T14:01:58;11.80;;;5.37;;
58240;SDS011;45058;55.772;38.224;2023-11-18T14:04:28;12.33;;;5.83;;
58240;SDS011;45058;55.772;38.224;2023-11-18T14:06:58;11.53;;;5.87;;
58240;SDS011;45058;55.772;38.224;2023-11-18T14:09:25;19.03;;;6.10;;
58240;SDS011;45058;55.772;38.224;2023-11-18T14:11:55;20.40;;;6.50;;
58240;SDS011;45058;55.772;38.224;2023-11-18T14:14:25;21.73;;;6.70;;
58240;SDS011;45058;55.772;38.224;2023-11-18T14:16:53;19.53;;;6.80;;
58240;SDS011;45058;55.772;38.224;2023-11-18T14:19:23;15.20;;;7.30;;
58240;SDS011;45058;55.772;38.224;2023-11-18T14:21:56;15.37;;;5.83;;
58240;SDS011;45058;55.772;38.224;2023-11-18T14:24:23;30.33;;;10.03;;
58240;SDS011;45058;55.772;38.224;2023-11-18T14:26:54;23.10;;;9.57;;
58240;SDS011;45058;55.772;38.224;2023-11-18T14:29:22;27.07;;;11.93;;
58240;SDS011;45058;55.772;38.224;2023-11-18T14:31:48;47.20;;;19.37;;
58240;SDS011;45058;55.772;38.224;2023-11-18T14:34:15;66.97;;;29.27;;
58240;SDS011;45058;55.772;38.224;2023-11-18T14:36:41;67.70;;;27.77;;
58240;SDS011;45058;55.772;38.224;2023-11-18T14:39:08;41.80;;;20.93;;
58240;SDS011;45058;55.772;38.224;2023-11-18T14:41:39;49.50;;;21.60;;
58240;SDS011;45058;55.772;38.224;2023-11-18T14:44:06;53.77;;;23.43;;
58240;SDS011;45058;55.772;38.224;2023-11-18T14:46:35;50.57;;;24.43;;
58240;SDS011;45058;55.772;38.224;2023-11-18T14:49:06;58.57;;;19.93;;
58240;SDS011;45058;55.772;38.224;2023-11-18T14:51:33;68.90;;;21.27;;
58240;SDS011;45058;55.772;38.224;2023-11-18T14:54:01;65.17;;;30.97;;
58240;SDS011;45058;55.772;38.224;2023-11-18T14:56:28;74.97;;;28.00;;
58240;SDS011;45058;55.772;38.224;2023-11-18T14:58:55;81.47;;;33.33;;
58240;SDS011;45058;55.772;38.224;2023-11-18T15:01:21;82.80;;;34.33;;
58240;SDS011;45058;55.772;38.224;2023-11-18T15:03:47;71.03;;;25.17;;